Time;durP1;ratioP1;P1;durP2;ratioP2;P2;SDS_P1;SDS_P2;PMS_P1;PMS_P2;Temp;Humidity;BMP_temperature;BMP_pressure;BME280_temperature;BME280_humidity;BME280_pressure;Samples;Min_cycle;Max_cycle;Signal;HPM_P1;HPM_P2
2023/07/23 00:01:55;;;;;;;8.98;7.20;;;;;;;15.09;100.00;100796.34;10413751;28;20044;-68
2023/07/23 00:06:56;;;;;;;11.05;7.22;;;;;;;15.09;100.00;100796.34;10415009;28;20087;-67
2023/07/23 00:11:56;;;;;;;9.35;6.97;;;;;;;15.09;100.00;100799.06;10414420;28;20064;-67
2023/07/23 00:16:57;;;;;;;11.95;7.75;;;;;;;15.09;100.00;100790.91;10414243;28;20070;-67
2023/07/23 00:21:57;;;;;;;10.18;6.43;;;;;;;15.14;100.00;100779.31;10413337;28;20057;-67
2023/07/23 00:26:57;;;;;;;1.02;1.00;;;;;;;15.20;100.00;100781.13;10413795;28;20033;-67
2023/07/23 00:31:58;;;;;;;2.30;1.42;;;;;;;15.22;100.00;100768.06;10414340;28;20523;-67
2023/07/23 00:36:58;;;;;;;2.03;1.92;;;;;;;15.25;100.00;100763.00;10413738;28;20373;-68
2023/07/23 00:41:59;;;;;;;0.22;0.22;;;;;;;15.25;100.00;100753.97;10413527;28;20062;-67
2023/07/23 00:47:00;;;;;;;1.83;1.67;;;;;;;15.26;100.00;100753.75;10412768;28;20076;-67
2023/07/23 00:52:00;;;;;;;0.60;0.60;;;;;;;15.29;100.00;100747.00;10413159;28;20057;-67
2023/07/23 00:57:01;;;;;;;1.13;1.13;;;;;;;15.25;100.00;100737.59;10413847;28;20094;-68
2023/07/23 01:02:02;;;;;;;1.00;1.00;;;;;;;15.27;100.00;100727.28;10412683;28;20041;-66
2023/07/23 01:07:03;;;;;;;1.73;1.63;;;;;;;15.25;100.00;100724.81;10411627;28;20369;-67
2023/07/23 01:12:03;;;;;;;0.73;0.73;;;;;;;15.28;100.00;100718.03;10410773;28;20037;-68
2023/07/23 01:17:05;;;;;;;2.42;2.33;;;;;;;15.28;100.00;100720.75;10412633;28;20076;-68
2023/07/23 01:22:05;;;;;;;0.50;0.50;;;;;;;15.26;100.00;100706.53;10436085;28;20041;-68
2023/07/23 01:27:06;;;;;;;0.60;0.60;;;;;;;15.29;100.00;100693.25;10420264;28;20037;-67
2023/07/23 01:32:07;;;;;;;4.00;1.02;;;;;;;15.29;100.00;100682.34;10420972;28;20037;-69
2023/07/23 01:37:11;;;;;;;0.57;0.57;;;;;;;15.29;100.00;100670.59;10420433;28;20063;-68
2023/07/23 01:42:12;;;;;;;1.02;1.02;;;;;;;15.30;100.00;100664.06;10419036;28;20116;-67
2023/07/23 01:47:12;;;;;;;1.05;1.05;;;;;;;15.33;100.00;100660.88;10420643;28;20045;-67
2023/07/23 01:52:12;;;;;;;0.30;0.30;;;;;;;15.34;100.00;100665.25;10419476;28;20038;-68
2023/07/23 01:57:13;;;;;;;0.65;0.63;;;;;;;15.34;100.00;100651.63;10419759;28;20057;-67
2023/07/23 02:02:13;;;;;;;0.52;0.52;;;;;;;15.33;100.00;100644.50;10417832;28;20095;-67
2023/07/23 02:07:14;;;;;;;0.88;0.88;;;;;;;15.29;100.00;100638.69;10420358;28;20105;-67
2023/07/23 02:12:15;;;;;;;6.28;2.05;;;;;;;15.30;100.00;100628.63;10419428;28;20040;-67
2023/07/23 02:17:15;;;;;;;0.30;0.30;;;;;;;15.34;100.00;100619.72;10417883;28;20113;-67
2023/07/23 02:22:15;;;;;;;0.30;0.30;;;;;;;15.35;100.00;100610.47;10420064;28;20063;-67
2023/07/23 02:27:16;;;;;;;0.50;0.50;;;;;;;15.32;100.00;100602.75;10420007;28;20116;-68
2023/07/23 02:32:16;;;;;;;1.40;1.38;;;;;;;15.26;100.00;100594.69;10418925;28;20041;-68
2023/07/23 02:37:17;;;;;;;0.50;0.50;;;;;;;15.25;100.00;100590.28;10433805;28;20087;-67
2023/07/23 02:42:17;;;;;;;0.40;0.40;;;;;;;15.26;100.00;100572.88;10433788;28;20068;-68
2023/07/23 02:47:17;;;;;;;0.68;0.68;;;;;;;15.29;100.00;100572.41;10417648;28;20116;-68
2023/07/23 02:52:18;;;;;;;0.30;0.30;;;;;;;15.31;100.00;100549.25;10417817;28;20034;-68
2023/07/23 02:57:18;;;;;;;0.60;0.60;;;;;;;15.30;100.00;100553.06;10416102;28;20080;-67
2023/07/23 03:02:20;;;;;;;0.55;0.55;;;;;;;15.33;100.00;100544.41;10418945;28;20049;-67
2023/07/23 03:07:20;;;;;;;5.25;1.67;;;;;;;15.30;100.00;100539.41;10417601;28;20406;-67
2023/07/23 03:12:21;;;;;;;0.30;0.30;;;;;;;15.31;100.00;100529.31;10417177;28;20048;-67
2023/07/23 03:17:21;;;;;;;0.45;0.45;;;;;;;15.35;100.00;100528.63;10417312;28;20441;-67
2023/07/23 03:22:22;;;;;;;0.20;0.20;;;;;;;15.38;100.00;100515.56;10417039;28;20034;-68
2023/07/23 03:27:22;;;;;;;0.50;0.50;;;;;;;15.41;100.00;100512.34;10416836;28;20113;-67
2023/07/23 03:32:23;;;;;;;0.90;0.90;;;;;;;15.41;100.00;100507.75;10415196;28;20092;-68
2023/07/23 03:37:23;;;;;;;0.30;0.30;;;;;;;15.40;100.00;100506.06;10416216;28;20040;-68
2023/07/23 03:42:24;;;;;;;7.88;1.90;;;;;;;15.44;100.00;100509.97;10431465;28;20034;-68
2023/07/23 03:47:24;;;;;;;12.60;5.38;;;;;;;15.45;100.00;100499.91;10415885;28;20523;-67
2023/07/23 03:52:25;;;;;;;7.22;6.43;;;;;;;15.47;100.00;100492.31;10415648;28;20120;-67
2023/07/23 03:57:25;;;;;;;10.82;6.43;;;;;;;15.50;100.00;100489.09;10415869;28;20469;-67
2023/07/23 04:02:26;;;;;;;9.65;6.20;;;;;;;15.54;100.00;100488.38;10414954;28;20072;-67
2023/07/23 04:07:26;;;;;;;12.02;7.07;;;;;;;15.62;100.00;100487.16;10414417;28;20117;-68
2023/07/23 04:12:26;;;;;;;11.35;7.88;;;;;;;15.64;100.00;100485.03;10413942;28;20484;-68
2023/07/23 04:22:40;;;;;;;18.45;9.00;;;;;;;15.67;100.00;100475.59;11955944;23;20089;-72
2023/07/23 04:27:41;;;;;;;10.52;8.25;;;;;;;15.67;100.00;100479.13;10331303;28;20073;-67
2023/07/23 04:32:41;;;;;;;25.17;8.20;;;;;;;15.72;100.00;100471.03;10334016;28;20117;-67
2023/07/23 04:37:42;;;;;;;14.77;8.23;;;;;;;15.73;100.00;100469.97;10331553;28;20030;-67
2023/07/23 04:42:42;;;;;;;17.55;8.80;;;;;;;15.68;100.00;100478.06;10314953;28;20035;-67
2023/07/23 04:47:43;;;;;;;14.50;8.75;;;;;;;15.66;100.00;100473.88;10331754;28;20038;-67
2023/07/23 04:52:43;;;;;;;12.73;8.27;;;;;;;15.65;100.00;100478.50;10331600;28;20070;-67
2023/07/23 04:57:43;;;;;;;13.15;9.05;;;;;;;15.60;100.00;100478.38;10297991;28;20509;-67
2023/07/23 05:02:44;;;;;;;14.90;8.93;;;;;;;15.54;100.00;100480.19;10315960;28;20101;-67
2023/07/23 05:07:44;;;;;;;15.25;7.95;;;;;;;15.51;100.00;100482.59;10332478;28;20045;-67
2023/07/23 05:12:45;;;;;;;10.98;7.22;;;;;;;15.41;100.00;100488.66;10332540;28;20065;-67
2023/07/23 05:17:45;;;;;;;9.75;6.80;;;;;;;15.29;100.00;100488.66;10331510;28;20061;-67
2023/07/23 05:22:45;;;;;;;9.80;6.78;;;;;;;15.25;100.00;100484.75;10332325;28;20082;-67
2023/07/23 05:27:46;;;;;;;1.90;1.67;;;;;;;15.23;100.00;100481.44;10329832;28;20364;-67
2023/07/23 05:32:46;;;;;;;0.60;0.60;;;;;;;15.16;100.00;100480.72;10314137;28;20097;-67
2023/07/23 05:37:47;;;;;;;1.25;1.25;;;;;;;15.09;100.00;100475.41;10331995;28;20466;-67
2023/07/23 05:42:47;;;;;;;0.77;0.77;;;;;;;15.03;100.00;100476.34;10331344;28;20065;-67
2023/07/23 05:47:48;;;;;;;2.00;1.90;;;;;;;15.00;100.00;100474.09;10331374;28;20512;-67
2023/07/23 05:52:48;;;;;;;1.60;1.58;;;;;;;15.09;100.00;100472.66;10332178;28;20065;-67
2023/07/23 05:57:49;;;;;;;0.50;0.50;;;;;;;15.10;100.00;100457.13;10313773;28;20045;-66
2023/07/23 06:02:49;;;;;;;5.20;4.80;;;;;;;15.02;100.00;100463.75;10314358;28;20046;-67
2023/07/23 06:07:49;;;;;;;0.82;0.82;;;;;;;15.00;100.00;100465.91;10337586;28;20031;-67
2023/07/23 06:12:50;;;;;;;1.33;1.23;;;;;;;15.06;100.00;100469.56;10338800;28;20042;-67
2023/07/23 06:17:50;;;;;;;0.77;0.77;;;;;;;15.24;100.00;100468.59;10320340;28;20109;-67
2023/07/23 06:22:51;;;;;;;0.57;0.57;;;;;;;15.46;100.00;100456.00;10337291;28;20462;-67
2023/07/23 06:27:51;;;;;;;0.32;0.32;;;;;;;15.42;100.00;100462.19;10320719;28;20069;-67
2023/07/23 06:32:51;;;;;;;13.05;4.65;;;;;;;15.28;100.00;100461.59;10337697;28;20030;-67
2023/07/23 06:37:52;;;;;;;1.95;1.85;;;;;;;15.27;100.00;100463.50;10337696;28;20022;-67
2023/07/23 06:42:52;;;;;;;1.13;1.13;;;;;;;15.42;100.00;100454.00;10319466;28;20113;-67
2023/07/23 06:47:53;;;;;;;1.73;1.60;;;;;;;15.53;100.00;100461.31;10337328;28;20350;-67
2023/07/23 06:52:53;;;;;;;0.50;0.50;;;;;;;15.63;100.00;100458.78;10336505;28;20039;-68
2023/07/23 06:57:53;;;;;;;3.63;1.80;;;;;;;15.77;100.00;100468.41;10336020;28;20073;-68
2023/07/23 07:02:54;;;;;;;0.82;0.82;;;;;;;15.93;100.00;100469.53;10336166;28;20508;-67
2023/07/23 07:07:54;;;;;;;0.50;0.50;;;;;;;16.00;100.00;100462.03;10335763;28;20060;-67
2023/07/23 07:12:54;;;;;;;4.50;4.10;;;;;;;16.11;100.00;100460.31;10335687;28;20042;-68
2023/07/23 07:17:55;;;;;;;9.07;6.20;;;;;;;16.25;100.00;100449.94;10334408;28;20035;-67
2023/07/23 07:22:55;;;;;;;9.05;6.43;;;;;;;16.43;100.00;100452.44;10318065;28;20058;-67
2023/07/23 07:27:56;;;;;;;6.68;5.07;;;;;;;16.65;100.00;100452.50;10335181;28;20460;-68
2023/07/23 07:32:56;;;;;;;6.40;5.35;;;;;;;16.75;100.00;100449.13;10316980;28;20053;-67
2023/07/23 07:37:56;;;;;;;8.65;5.60;;;;;;;16.77;100.00;100446.97;10334862;28;20030;-67
2023/07/23 07:42:57;;;;;;;8.45;6.00;;;;;;;16.73;100.00;100429.41;10333454;28;20540;-68
2023/07/23 07:47:57;;;;;;;6.05;5.45;;;;;;;16.82;100.00;100457.19;10334485;28;20385;-69
2023/07/23 07:52:58;;;;;;;12.13;5.13;;;;;;;16.85;100.00;100443.84;10316947;28;20062;-68
2023/07/23 07:57:58;;;;;;;16.70;6.32;;;;;;;16.83;100.00;100456.94;10333678;28;20088;-68
2023/07/23 08:02:59;;;;;;;7.13;5.70;;;;;;;16.93;100.00;100448.06;10333648;28;20034;-68
2023/07/23 08:07:59;;;;;;;7.60;5.50;;;;;;;17.07;100.00;100448.50;10333812;28;20061;-68
2023/07/23 08:13:01;;;;;;;5.75;5.20;;;;;;;17.00;100.00;100448.69;10333442;28;20057;-68
2023/07/23 08:18:01;;;;;;;9.68;5.55;;;;;;;17.00;100.00;100442.41;10332969;28;20069;-68
2023/07/23 08:23:02;;;;;;;7.72;6.05;;;;;;;17.01;100.00;100449.56;10315892;28;20177;-68
2023/07/23 08:28:03;;;;;;;7.20;4.55;;;;;;;16.98;100.00;100447.31;10332323;28;20046;-68
2023/07/23 08:33:04;;;;;;;6.60;5.63;;;;;;;17.03;100.00;100455.56;10331640;28;20049;-68
2023/07/23 08:38:04;;;;;;;5.97;5.38;;;;;;;17.17;100.00;100456.91;10315612;28;20070;-68
2023/07/23 08:43:32;;;;;;;5.78;5.15;;;;;;;17.31;100.00;100449.97;10331729;28;20125;-68
2023/07/23 08:48:56;;;;;;;7.60;5.18;;;;;;;17.27;100.00;100451.56;10331926;28;20030;-68
2023/07/23 08:53:56;;;;;;;7.53;5.20;;;;;;;17.32;100.00;100437.91;10311295;28;20050;-68
2023/07/23 08:58:58;;;;;;;8.63;4.43;;;;;;;17.27;100.00;100450.72;10313560;28;20121;-68
2023/07/23 09:03:58;;;;;;;8.93;4.70;;;;;;;17.29;100.00;100448.56;10314786;28;20412;-69
2023/07/23 09:09:09;;;;;;;7.32;5.18;;;;;;;17.10;100.00;100462.53;10330076;28;20081;-69
2023/07/23 09:14:11;;;;;;;6.55;5.32;;;;;;;16.84;100.00;100455.00;10330929;28;20079;-69
2023/07/23 09:19:12;;;;;;;5.63;5.10;;;;;;;16.85;100.00;100454.78;10331258;28;20035;-68
2023/07/23 09:24:14;;;;;;;6.50;5.75;;;;;;;16.58;100.00;100464.69;10330569;28;20050;-68
2023/07/23 09:29:15;;;;;;;5.85;5.35;;;;;;;16.57;100.00;100473.97;10313077;28;20033;-68
2023/07/23 09:34:18;;;;;;;8.20;5.65;;;;;;;16.56;100.00;100483.22;10313337;28;20069;-68
2023/07/23 09:39:19;;;;;;;5.60;5.20;;;;;;;16.86;100.00;100478.31;10332591;28;20383;-68
2023/07/23 09:44:20;;;;;;;5.85;5.25;;;;;;;16.76;100.00;100475.41;10339181;28;20366;-69
2023/07/23 09:49:28;;;;;;;6.97;6.25;;;;;;;16.89;100.00;100468.78;10321585;28;20030;-70
2023/07/23 09:54:28;;;;;;;9.90;5.30;;;;;;;17.07;100.00;100459.47;10339075;28;20046;-69
2023/07/23 09:59:30;;;;;;;6.65;5.40;;;;;;;17.12;100.00;100471.31;10337651;28;20105;-69
2023/07/23 10:04:30;;;;;;;6.68;5.88;;;;;;;17.22;100.00;100472.53;10308570;28;20053;-68
2023/07/23 10:09:30;;;;;;;10.82;6.32;;;;;;;17.52;100.00;100474.88;10322968;28;20053;-71
2023/07/23 10:14:31;;;;;;;6.22;4.75;;;;;;;17.50;100.00;100482.50;10321474;28;20454;-69
2023/07/23 10:19:31;;;;;;;5.80;5.28;;;;;;;17.55;100.00;100471.59;10337794;28;20381;-69
2023/07/23 10:24:39;;;;;;;7.50;6.20;;;;;;;17.69;100.00;100480.28;10320709;28;20050;-69
2023/07/23 10:29:40;;;;;;;10.50;6.15;;;;;;;17.94;100.00;100483.38;10337645;28;20206;-69
2023/07/23 10:34:41;;;;;;;4.55;4.03;;;;;;;18.24;100.00;100468.31;10304844;28;20481;-69
2023/07/23 10:39:42;;;;;;;10.07;6.30;;;;;;;19.43;100.00;100475.31;10337251;28;20426;-69
2023/07/23 10:44:43;;;;;;;7.15;4.80;;;;;;;20.48;100.00;100465.19;10319428;28;20114;-69
2023/07/23 10:49:43;;;;;;;5.43;4.93;;;;;;;20.32;100.00;100459.66;10336260;28;20053;-69
2023/07/23 10:54:44;;;;;;;5.32;3.88;;;;;;;21.30;100.00;100466.78;10318956;28;20034;-69
2023/07/23 10:59:44;;;;;;;7.47;4.53;;;;;;;20.70;100.00;100479.53;10335122;28;20108;-69
2023/07/23 11:04:45;;;;;;;5.43;4.43;;;;;;;20.61;100.00;100476.53;10318658;28;20042;-68
2023/07/23 11:09:46;;;;;;;6.90;3.78;;;;;;;20.52;100.00;100472.66;10337254;28;20473;-68
2023/07/23 11:14:46;;;;;;;6.15;4.35;;;;;;;20.60;100.00;100469.34;10335719;28;20100;-68
2023/07/23 11:19:46;;;;;;;3.85;3.55;;;;;;;20.64;100.00;100486.97;10335992;28;20422;-68
2023/07/23 11:24:47;;;;;;;4.80;3.30;;;;;;;20.52;100.00;100469.91;10318995;28;20046;-69
2023/07/23 11:29:47;;;;;;;4.88;3.67;;;;;;;20.39;100.00;100471.25;10335360;28;20378;-67
2023/07/23 11:34:48;;;;;;;3.03;2.83;;;;;;;20.44;100.00;100467.66;10318178;28;20097;-69
2023/07/23 11:39:51;;;;;;;6.20;3.10;;;;;;;21.36;100.00;100470.38;10336088;28;20426;-69
2023/07/23 11:45:06;;;;;;;5.18;2.88;;;;;;;20.76;100.00;100470.16;10335200;28;20042;-69
2023/07/23 11:50:06;;;;;;;12.18;4.45;;;;;;;20.70;100.00;100484.22;10300519;28;20042;-69
2023/07/23 11:55:18;;;;;;;5.05;4.50;;;;;;;21.65;100.00;100481.59;10334551;28;20046;-69
2023/07/23 12:00:39;;;;;;;4.63;3.80;;;;;;;23.18;100.00;100476.97;10334551;28;20467;-69
2023/07/23 12:05:39;;;;;;;4.35;3.50;;;;;;;24.03;100.00;100470.72;10317815;28;20145;-69
2023/07/23 12:10:40;;;;;;;12.13;3.45;;;;;;;23.30;100.00;100455.31;10333191;28;20520;-68
2023/07/23 12:15:41;;;;;;;5.68;2.63;;;;;;;23.31;100.00;100470.75;10331640;28;20118;-68
2023/07/23 12:20:41;;;;;;;4.53;2.38;;;;;;;23.07;100.00;100473.50;10315891;28;20034;-69
2023/07/23 12:25:42;;;;;;;5.35;2.95;;;;;;;23.26;100.00;100453.41;10333514;28;20077;-67
2023/07/23 12:30:42;;;;;;;4.63;2.38;;;;;;;23.66;100.00;100496.34;10331231;28;20125;-68
2023/07/23 12:35:42;;;;;;;6.63;2.15;;;;;;;23.79;100.00;100484.59;10332894;28;20050;-67
2023/07/23 12:40:43;;;;;;;3.58;2.83;;;;;;;24.11;100.00;100477.53;10316645;28;20030;-67
2023/07/23 12:45:43;;;;;;;6.53;2.45;;;;;;;24.23;100.00;100485.38;10333394;28;20061;-68
2023/07/23 12:50:44;;;;;;;2.78;2.25;;;;;;;23.73;100.00;100483.00;10332951;28;20495;-68
2023/07/23 12:55:44;;;;;;;4.07;2.47;;;;;;;23.94;100.00;100491.06;10315379;28;20068;-67
2023/07/23 13:00:45;;;;;;;2.25;1.88;;;;;;;24.24;100.00;100482.31;10314554;28;20138;-69
2023/07/23 13:05:45;;;;;;;8.35;2.45;;;;;;;24.40;100.00;100479.31;10331121;28;20038;-68
2023/07/23 13:10:45;;;;;;;3.20;2.75;;;;;;;25.57;100.00;100474.50;10332926;28;20072;-71
2023/07/23 13:15:46;;;;;;;3.58;2.65;;;;;;;26.00;100.00;100463.06;10331271;28;20497;-68
2023/07/23 13:20:46;;;;;;;4.22;2.92;;;;;;;25.72;100.00;100470.63;10331592;28;20081;-66
2023/07/23 13:25:48;;;;;;;18.05;3.92;;;;;;;26.02;100.00;100483.03;10332433;28;20062;-67
2023/07/23 13:30:49;;;;;;;5.43;3.38;;;;;;;24.94;100.00;100475.13;10297954;28;20042;-69
2023/07/23 13:35:51;;;;;;;8.15;3.45;;;;;;;25.27;100.00;100487.00;10331360;28;20062;-66
2023/07/23 13:40:51;;;;;;;4.93;2.53;;;;;;;26.21;100.00;100475.38;10331554;28;20030;-68
2023/07/23 13:45:52;;;;;;;5.75;2.17;;;;;;;26.14;100.00;100494.41;10332589;28;20030;-69
2023/07/23 13:50:52;;;;;;;2.67;1.98;;;;;;;26.44;100.00;100483.72;10297612;28;20042;-67
2023/07/23 13:55:53;;;;;;;3.67;2.63;;;;;;;26.33;100.00;100493.44;10330035;28;20104;-69
2023/07/23 14:00:53;;;;;;;3.15;2.47;;;;;;;25.65;100.00;100476.53;10313516;28;20108;-69
2023/07/23 14:05:54;;;;;;;3.95;2.55;;;;;;;25.54;100.00;100477.09;10330655;28;20089;-68
2023/07/23 14:10:54;;;;;;;2.53;1.70;;;;;;;25.67;100.00;100479.84;10314050;28;20057;-68
2023/07/23 14:15:54;;;;;;;3.53;2.80;;;;;;;25.90;100.00;100472.44;10298292;28;20077;-69
2023/07/23 14:20:55;;;;;;;2.55;2.10;;;;;;;25.69;100.00;100472.06;10330978;28;20110;-68
2023/07/23 14:25:56;;;;;;;6.60;2.72;;;;;;;25.86;100.00;100470.63;10332807;28;20050;-68
2023/07/23 14:30:56;;;;;;;2.85;1.88;;;;;;;25.88;99.56;100474.72;10337108;28;20446;-68
2023/07/23 14:35:59;;;;;;;2.72;1.55;;;;;;;25.97;94.94;100477.56;10336879;28;20050;-68
2023/07/23 14:41:00;;;;;;;3.13;2.38;;;;;;;25.43;98.13;100466.22;10337048;28;20581;-68
2023/07/23 14:46:01;;;;;;;2.42;1.67;;;;;;;24.95;90.19;100472.06;10335331;28;20096;-68
2023/07/23 14:51:01;;;;;;;2.15;2.05;;;;;;;24.45;84.28;100462.66;10318841;28;20049;-68
2023/07/23 14:56:02;;;;;;;3.03;2.33;;;;;;;23.80;91.67;100457.75;10335412;28;20137;-68
2023/07/23 15:01:02;;;;;;;3.60;2.55;;;;;;;24.24;94.76;100470.41;10336832;28;20070;-69
2023/07/23 15:06:03;;;;;;;14.82;3.08;;;;;;;23.53;94.13;100467.47;10320033;28;20053;-68
2023/07/23 15:11:03;;;;;;;4.60;2.90;;;;;;;23.01;100.00;100455.34;10338079;28;20426;-68
2023/07/23 15:16:04;;;;;;;2.85;2.55;;;;;;;23.44;100.00;100458.16;10319394;28;20374;-68
2023/07/23 15:21:05;;;;;;;10.98;3.42;;;;;;;23.26;100.00;100448.72;10336251;28;20160;-68
2023/07/23 15:26:05;;;;;;;3.03;2.67;;;;;;;23.17;100.00;100454.06;10334420;28;20094;-68
2023/07/23 15:31:05;;;;;;;4.22;2.80;;;;;;;22.92;100.00;100457.88;10319625;28;20034;-68
2023/07/23 15:36:06;;;;;;;3.20;2.72;;;;;;;22.50;100.00;100455.75;10335105;28;20061;-68
2023/07/23 15:41:06;;;;;;;10.13;2.80;;;;;;;22.21;100.00;100450.19;10317506;28;20050;-68
2023/07/23 15:46:07;;;;;;;5.20;2.78;;;;;;;22.20;100.00;100463.13;10334940;28;20516;-68
2023/07/23 15:51:07;;;;;;;3.85;2.47;;;;;;;22.27;99.62;100462.81;10333855;28;20034;-68
2023/07/23 15:56:08;;;;;;;3.03;2.40;;;;;;;22.16;100.00;100462.06;10334969;28;20185;-68
2023/07/23 16:01:08;;;;;;;2.92;2.55;;;;;;;22.27;100.00;100460.03;10319345;28;20038;-69
2023/07/23 16:06:08;;;;;;;2.70;2.50;;;;;;;22.19;100.00;100452.38;10334907;28;20045;-68
2023/07/23 16:11:09;;;;;;;5.85;2.72;;;;;;;22.19;100.00;100455.16;10334000;28;20042;-68
2023/07/23 16:16:10;;;;;;;6.28;3.55;;;;;;;22.16;100.00;100464.00;10334000;28;20054;-69
2023/07/23 16:21:10;;;;;;;5.40;4.50;;;;;;;22.03;100.00;100452.44;10334960;28;20128;-68
2023/07/23 16:26:11;;;;;;;3.53;3.25;;;;;;;21.83;100.00;100458.91;10335872;28;20058;-69
2023/07/23 16:31:11;;;;;;;6.07;3.65;;;;;;;21.73;100.00;100447.09;10334478;28;20026;-68
2023/07/23 16:36:12;;;;;;;6.32;4.75;;;;;;;21.71;100.00;100444.63;10335402;28;20042;-68
2023/07/23 16:41:13;;;;;;;18.63;5.13;;;;;;;21.63;100.00;100441.63;10316719;28;20413;-67
2023/07/23 16:46:13;;;;;;;6.47;4.60;;;;;;;21.64;100.00;100433.09;10333989;28;20054;-68
2023/07/23 16:51:14;;;;;;;8.93;4.38;;;;;;;21.58;100.00;100415.75;10316669;28;20026;-68
2023/07/23 16:56:14;;;;;;;9.75;4.60;;;;;;;21.57;100.00;100407.78;10334605;28;20085;-68
2023/07/23 17:01:14;;;;;;;3.72;3.42;;;;;;;21.61;100.00;100422.63;10318216;28;20092;-68
2023/07/23 17:06:15;;;;;;;6.55;4.28;;;;;;;21.62;100.00;100413.25;10316948;28;20130;-69
2023/07/23 17:11:18;;;;;;;7.38;4.30;;;;;;;21.52;100.00;100414.13;10316059;28;20046;-68
2023/07/23 17:16:19;;;;;;;6.32;3.53;;;;;;;21.63;100.00;100416.81;10314887;28;20053;-68
2023/07/23 17:21:19;;;;;;;7.72;4.40;;;;;;;21.50;100.00;100418.25;10299107;28;20038;-70
2023/07/23 17:26:20;;;;;;;4.75;3.97;;;;;;;21.23;100.00;100405.69;10313618;28;20141;-70
2023/07/23 17:31:27;;;;;;;5.20;4.13;;;;;;;21.19;100.00;100409.28;10331113;28;20101;-71
2023/07/23 17:36:27;;;;;;;9.75;4.55;;;;;;;21.44;100.00;100405.63;10330962;28;20030;-72
2023/07/23 17:41:28;;;;;;;5.18;4.15;;;;;;;21.69;100.00;100407.44;10333002;28;20043;-71
2023/07/23 17:46:28;;;;;;;6.80;4.30;;;;;;;21.80;100.00;100401.59;10314293;28;20034;-71
2023/07/23 17:51:28;;;;;;;4.57;4.18;;;;;;;21.54;100.00;100392.63;10313988;28;20121;-73
2023/07/23 17:56:29;;;;;;;6.20;4.13;;;;;;;21.29;100.00;100400.97;10297390;28;20387;-73
2023/07/23 18:01:29;;;;;;;15.55;4.40;;;;;;;21.20;100.00;100397.97;10335468;28;20041;-72
2023/07/23 18:06:29;;;;;;;19.65;4.97;;;;;;;21.02;100.00;100399.41;10338859;28;20043;-70
2023/07/23 18:11:30;;;;;;;5.53;4.88;;;;;;;20.80;100.00;100394.22;10338387;28;20354;-71
2023/07/23 18:16:30;;;;;;;12.20;5.90;;;;;;;20.79;100.00;100400.00;10336490;28;20042;-70
2023/07/23 18:21:31;;;;;;;19.13;5.38;;;;;;;20.67;100.00;100403.84;10320252;28;20042;-71
2023/07/23 18:26:31;;;;;;;6.22;4.85;;;;;;;20.55;100.00;100397.84;10338802;28;20058;-71
2023/07/23 18:31:32;;;;;;;10.00;5.57;;;;;;;20.43;100.00;100398.09;10320995;28;20054;-73
2023/07/23 18:36:32;;;;;;;7.03;5.00;;;;;;;20.29;100.00;100401.63;10319149;28;20053;-72
2023/07/23 18:41:33;;;;;;;8.60;5.20;;;;;;;20.27;100.00;100387.38;10318836;28;20120;-72
2023/07/23 18:46:34;;;;;;;6.10;5.40;;;;;;;20.20;100.00;100393.97;10335375;28;20496;-71
2023/07/23 18:51:34;;;;;;;18.10;5.13;;;;;;;20.08;100.00;100385.16;10335858;28;20034;-72
2023/07/23 18:56:35;;;;;;;7.57;5.10;;;;;;;20.06;100.00;100381.00;10336398;28;20034;-71
2023/07/23 19:01:35;;;;;;;7.18;4.88;;;;;;;20.03;100.00;100387.06;10336398;28;20096;-70
2023/07/23 19:06:35;;;;;;;5.75;4.45;;;;;;;19.91;100.00;100385.41;10335922;28;20100;-71
2023/07/23 19:11:36;;;;;;;5.70;5.05;;;;;;;19.84;100.00;100386.75;10332798;28;20521;-72
2023/07/23 19:16:36;;;;;;;8.05;4.78;;;;;;;19.79;100.00;100393.06;10335419;28;20097;-71
2023/07/23 19:21:37;;;;;;;6.25;5.65;;;;;;;19.72;100.00;100398.00;10335711;28;20037;-72
2023/07/23 19:26:37;;;;;;;6.82;4.93;;;;;;;19.66;100.00;100401.84;10316335;28;20089;-71
2023/07/23 19:31:38;;;;;;;7.57;4.65;;;;;;;19.62;100.00;100401.50;10317288;28;20030;-71
2023/07/23 19:36:39;;;;;;;6.65;4.78;;;;;;;19.54;100.00;100396.53;10335231;28;20038;-72
2023/07/23 19:41:41;;;;;;;8.82;5.00;;;;;;;19.51;100.00;100397.88;10333856;28;20030;-70
2023/07/23 19:46:41;;;;;;;6.43;4.20;;;;;;;19.46;100.00;100392.41;10335227;28;20141;-74
2023/07/23 19:51:41;;;;;;;4.15;3.78;;;;;;;19.40;100.00;100395.38;10333633;28;20412;-71
2023/07/23 19:56:42;;;;;;;5.38;4.82;;;;;;;19.24;100.00;100403.56;10333990;28;20035;-75
2023/07/23 20:01:42;;;;;;;9.43;4.75;;;;;;;19.34;100.00;100412.94;10316302;28;20077;-71
2023/07/23 20:06:43;;;;;;;11.65;4.82;;;;;;;19.28;100.00;100410.16;10299682;28;20129;-72
2023/07/23 20:11:43;;;;;;;4.63;3.92;;;;;;;19.21;100.00;100417.81;10333398;28;20089;-71
2023/07/23 20:16:43;;;;;;;11.25;5.78;;;;;;;19.29;100.00;100417.28;10336409;28;20035;-72
2023/07/23 20:21:44;;;;;;;5.93;4.88;;;;;;;19.35;100.00;100411.84;10317697;28;20035;-71
2023/07/23 20:26:44;;;;;;;6.57;5.38;;;;;;;19.36;100.00;100419.78;10334334;28;20145;-70
2023/07/23 20:31:45;;;;;;;4.47;4.10;;;;;;;19.46;100.00;100428.09;10332838;28;20466;-71
2023/07/23 20:36:46;;;;;;;6.78;3.42;;;;;;;19.57;100.00;100434.44;10315582;28;20108;-73
2023/07/23 20:41:48;;;;;;;10.10;4.18;;;;;;;19.46;100.00;100421.75;10333363;28;20146;-73
2023/07/23 20:46:48;;;;;;;3.25;2.95;;;;;;;19.48;100.00;100425.06;10315072;28;20044;-72
2023/07/23 20:51:48;;;;;;;8.45;4.72;;;;;;;19.45;100.00;100418.19;10333260;28;20057;-71
2023/07/23 20:56:49;;;;;;;5.15;4.65;;;;;;;19.13;100.00;100426.53;10333128;28;20066;-72
2023/07/23 21:01:49;;;;;;;9.05;4.85;;;;;;;18.91;100.00;100426.69;10333613;28;20030;-72
2023/07/23 21:06:50;;;;;;;6.38;3.90;;;;;;;18.66;100.00;100421.81;10332273;28;20038;-72
2023/07/23 21:11:50;;;;;;;6.75;4.65;;;;;;;18.44;100.00;100426.56;10315182;28;20026;-73
2023/07/23 21:16:50;;;;;;;4.53;3.92;;;;;;;18.29;100.00;100436.31;10331675;28;20470;-72
2023/07/23 21:21:51;;;;;;;5.95;4.88;;;;;;;18.22;100.00;100432.97;10332436;28;20045;-72
2023/07/23 21:26:51;;;;;;;4.78;4.25;;;;;;;18.31;100.00;100434.16;10330148;28;20046;-72
2023/07/23 21:31:52;;;;;;;4.63;4.22;;;;;;;18.44;100.00;100434.78;10331285;28;20053;-72
2023/07/23 21:36:52;;;;;;;7.00;4.70;;;;;;;18.33;100.00;100442.94;10337805;28;20058;-72
2023/07/23 21:41:52;;;;;;;9.43;5.95;;;;;;;18.39;100.00;100441.06;10322690;28;20031;-74
2023/07/23 21:46:53;;;;;;;5.80;4.18;;;;;;;18.48;100.00;100442.25;10339490;28;20049;-73
2023/07/23 21:51:53;;;;;;;5.55;3.80;;;;;;;18.48;100.00;100428.53;10339701;28;20035;-73
2023/07/23 21:56:55;;;;;;;6.78;5.35;;;;;;;18.54;100.00;100427.50;10339310;28;20038;-71
2023/07/23 22:01:55;;;;;;;6.95;5.00;;;;;;;18.57;100.00;100440.69;10338607;28;20042;-74
2023/07/23 22:06:55;;;;;;;13.10;6.13;;;;;;;18.56;100.00;100427.22;10321004;28;20049;-72
2023/07/23 22:11:56;;;;;;;5.63;4.97;;;;;;;18.52;100.00;100418.69;10321809;28;20189;-72
2023/07/23 22:16:56;;;;;;;11.30;6.43;;;;;;;18.55;100.00;100429.13;10339007;28;20049;-71
2023/07/23 22:21:57;;;;;;;6.43;4.65;;;;;;;18.64;100.00;100426.75;10337994;28;20462;-71
2023/07/23 22:26:57;;;;;;;7.50;4.82;;;;;;;18.61;100.00;100419.03;10320358;28;20058;-71
2023/07/23 22:31:58;;;;;;;6.50;5.18;;;;;;;18.59;100.00;100412.97;10319851;28;20093;-73
2023/07/23 22:36:59;;;;;;;6.68;4.40;;;;;;;18.63;100.00;100416.84;10336492;28;20104;-73
2023/07/23 22:41:59;;;;;;;26.45;16.63;;;;;;;18.56;100.00;100411.59;10336288;28;20032;-74
2023/07/23 22:46:59;;;;;;;7.65;5.32;;;;;;;18.53;100.00;100420.34;10319732;28;20065;-75
2023/07/23 22:52:00;;;;;;;6.93;4.75;;;;;;;18.56;100.00;100413.50;10337898;28;20114;-71